Time;durP1;ratioP1;P1;durP2;ratioP2;P2;SDS_P1;SDS_P2;PMS_P1;PMS_P2;Temp;Humidity;BMP_temperature;BMP_pressure;BME280_temperature;BME280_humidity;BME280_pressure;Samples;Min_cycle;Max_cycle;Signal;HPM_P1;HPM_P2
2021/05/06 00:01:40;;;;;;;9.45;4.95;;;;;;;;;;5059200;28;20062;-76
2021/05/06 00:29:54;;;;;;;9.82;2.88;;;;;;;;;;5059400;28;20027;-76
2021/05/06 00:33:30;;;;;;;6.72;2.70;;;;;;;;;;5053025;28;20025;-76
2021/05/06 00:35:56;;;;;;;8.48;2.80;;;;;;;;;;5055009;28;20033;-76
2021/05/06 00:38:28;;;;;;;8.07;3.50;;;;;;;;;;5054211;28;20021;-76
2021/05/06 01:02:12;;;;;;;14.02;4.50;;;;;;;;;;5057167;28;20114;-75
2021/05/06 01:04:44;;;;;;;10.65;4.40;;;;;;;;;;5066965;28;20024;-73
2021/05/06 01:12:35;;;;;;;11.27;4.93;;;;;;;;;;5042782;28;20028;-75
2021/05/06 01:15:01;;;;;;;15.60;5.18;;;;;;;;;;5053618;28;20070;-75
2021/05/06 01:17:27;;;;;;;10.70;4.20;;;;;;;;;;5067689;28;20020;-75
2021/05/06 01:19:53;;;;;;;11.35;4.63;;;;;;;;;;5061988;28;20030;-76
2021/05/06 01:22:19;;;;;;;13.20;4.50;;;;;;;;;;5068043;28;20028;-76
2021/05/06 01:24:51;;;;;;;9.55;4.63;;;;;;;;;;5070598;28;20491;-75
2021/05/06 01:27:23;;;;;;;9.65;4.25;;;;;;;;;;5061940;28;20048;-75
2021/05/06 01:29:58;;;;;;;14.25;4.25;;;;;;;;;;5055062;28;20558;-76
2021/05/06 01:32:33;;;;;;;8.40;3.67;;;;;;;;;;5061841;28;20045;-76
2021/05/06 01:35:04;;;;;;;11.57;3.90;;;;;;;;;;5059289;28;20021;-76
2021/05/06 01:43:11;;;;;;;11.90;4.72;;;;;;;;;;5017867;28;20073;-76
2021/05/06 01:59:20;;;;;;;12.32;5.72;;;;;;;;;;5063719;28;20144;-77
2021/05/06 02:01:46;;;;;;;13.00;6.25;;;;;;;;;;5064608;28;20055;-77
2021/05/06 02:04:12;;;;;;;15.35;6.63;;;;;;;;;;5062247;28;20032;-77
2021/05/06 02:06:38;;;;;;;14.75;6.50;;;;;;;;;;5062140;28;20024;-76
2021/05/06 02:09:04;;;;;;;14.93;6.80;;;;;;;;;;5051483;28;20060;-77
2021/05/06 02:11:30;;;;;;;16.05;6.75;;;;;;;;;;5052620;28;20051;-77
2021/05/06 02:13:57;;;;;;;16.23;7.63;;;;;;;;;;5078753;28;20093;-77
2021/05/06 02:16:56;;;;;;;12.80;6.97;;;;;;;;;;5054412;28;20047;-76
2021/05/06 02:19:24;;;;;;;16.33;5.95;;;;;;;;;;5060998;28;20105;-77
2021/05/06 02:21:50;;;;;;;15.88;6.53;;;;;;;;;;5061149;28;20024;-78
2021/05/06 02:24:17;;;;;;;12.77;6.55;;;;;;;;;;5065173;28;20025;-76
2021/05/06 02:26:43;;;;;;;18.35;6.85;;;;;;;;;;5066016;28;20016;-77
2021/05/06 02:29:10;;;;;;;10.48;5.88;;;;;;;;;;5062173;28;20028;-77
2021/05/06 02:31:36;;;;;;;15.02;6.50;;;;;;;;;;5058365;28;20017;-77
2021/05/06 02:34:02;;;;;;;12.82;6.55;;;;;;;;;;5069944;28;20027;-78
2021/05/06 02:36:28;;;;;;;14.02;6.38;;;;;;;;;;5061414;28;20090;-79
2021/05/06 02:38:54;;;;;;;15.52;7.20;;;;;;;;;;5057970;28;20021;-78
2021/05/06 02:41:20;;;;;;;13.32;6.18;;;;;;;;;;5062426;28;20029;-77
2021/05/06 02:43:46;;;;;;;14.27;6.55;;;;;;;;;;5053888;28;20028;-78
2021/05/06 02:46:12;;;;;;;11.70;5.93;;;;;;;;;;5065800;28;20017;-78
2021/05/06 02:48:38;;;;;;;16.42;6.88;;;;;;;;;;5060475;28;20025;-78
2021/05/06 02:51:05;;;;;;;15.93;6.13;;;;;;;;;;5059309;28;20078;-78
2021/05/06 02:53:35;;;;;;;13.63;6.53;;;;;;;;;;5056552;28;20400;-79
2021/05/06 03:04:05;;;;;;;13.52;6.57;;;;;;;;;;5033075;28;20041;-79
2021/05/06 03:06:36;;;;;;;14.63;6.53;;;;;;;;;;5063068;28;20052;-79
2021/05/06 03:09:20;;;;;;;9.37;5.33;;;;;;;;;;5047160;28;20049;-78
2021/05/06 03:12:00;;;;;;;17.83;8.40;;;;;;;;;;5066384;28;20047;-78
2021/05/06 03:14:39;;;;;;;16.20;8.10;;;;;;;;;;5055740;28;20035;-78
2021/05/06 03:22:48;;;;;;;17.67;10.27;;;;;;;;;;5067186;28;20120;-78
2021/05/06 03:25:17;;;;;;;16.67;9.65;;;;;;;;;;5051381;28;20028;-78
2021/05/06 03:27:49;;;;;;;16.10;10.40;;;;;;;;;;5058547;28;20112;-78
2021/05/06 03:46:55;;;;;;;26.65;12.60;;;;;;;;;;5062527;28;20025;-78
2021/05/06 03:49:24;;;;;;;17.90;10.80;;;;;;;;;;5061918;28;20655;-79
2021/05/06 04:21:30;;;;;;;32.72;19.63;;;;;;;;;;5059374;28;20036;-78
2021/05/06 04:27:38;;;;;;;41.47;23.80;;;;;;;;;;5066045;28;20063;-78
2021/05/06 04:30:23;;;;;;;36.97;23.35;;;;;;;;;;5051556;28;20017;-78
2021/05/06 04:35:44;;;;;;;39.70;23.17;;;;;;;;;;5062799;28;20032;-78
2021/05/06 04:38:12;;;;;;;36.67;21.98;;;;;;;;;;5070319;28;20046;-78
2021/05/06 04:55:01;;;;;;;40.70;24.20;;;;;;;;;;5066453;28;20031;-79
2021/05/06 05:05:44;;;;;;;42.58;25.40;;;;;;;;;;5059910;28;20025;-80
2021/05/06 05:08:13;;;;;;;42.10;25.33;;;;;;;;;;5060985;28;20076;-79
2021/05/06 05:11:08;;;;;;;38.95;23.77;;;;;;;;;;5050404;28;20021;-79
2021/05/06 05:13:43;;;;;;;38.80;23.02;;;;;;;;;;5074490;28;20040;-79
2021/05/06 05:27:03;;;;;;;37.15;22.10;;;;;;;;;;5053528;28;20521;-79
2021/05/06 05:29:29;;;;;;;42.90;24.13;;;;;;;;;;5049205;28;20021;-80
2021/05/06 05:31:57;;;;;;;41.92;21.83;;;;;;;;;;5053117;28;20025;-80
2021/05/06 05:34:32;;;;;;;40.60;23.20;;;;;;;;;;5051843;28;20094;-80
2021/05/06 05:36:58;;;;;;;40.10;23.58;;;;;;;;;;5058926;28;20020;-79
2021/05/06 05:39:40;;;;;;;37.03;22.13;;;;;;;;;;5053341;28;20059;-79
2021/05/06 05:47:49;;;;;;;36.38;22.05;;;;;;;;;;5068632;28;20766;-79
2021/05/06 05:55:38;;;;;;;33.88;19.40;;;;;;;;;;5062863;28;20044;-79
2021/05/06 05:58:04;;;;;;;30.65;17.58;;;;;;;;;;5065507;28;20020;-76
2021/05/06 06:00:30;;;;;;;31.65;18.15;;;;;;;;;;5051550;28;20048;-79
2021/05/06 06:02:56;;;;;;;30.70;17.48;;;;;;;;;;5057998;28;20365;-78
2021/05/06 06:05:23;;;;;;;32.50;17.40;;;;;;;;;;5061421;28;20514;-81
2021/05/06 06:07:49;;;;;;;35.60;18.45;;;;;;;;;;5064738;28;20041;-79
2021/05/06 06:10:15;;;;;;;33.30;16.98;;;;;;;;;;5057908;28;20087;-79
2021/05/06 06:12:41;;;;;;;27.63;16.13;;;;;;;;;;5066036;28;20028;-79
2021/05/06 06:15:14;;;;;;;26.15;16.10;;;;;;;;;;5064741;28;20024;-79
2021/05/06 06:17:44;;;;;;;25.63;13.77;;;;;;;;;;5057693;28;20036;-78
2021/05/06 06:20:11;;;;;;;30.40;14.27;;;;;;;;;;5053835;28;20057;-76
2021/05/06 06:22:37;;;;;;;24.42;14.20;;;;;;;;;;5053271;28;20050;-80
2021/05/06 06:25:03;;;;;;;24.23;14.73;;;;;;;;;;5070422;28;20021;-79
2021/05/06 06:27:30;;;;;;;25.30;13.73;;;;;;;;;;5085018;28;20103;-75
2021/05/06 06:29:56;;;;;;;24.92;15.00;;;;;;;;;;5056593;28;20028;-78
2021/05/06 06:32:22;;;;;;;26.83;13.45;;;;;;;;;;5060437;28;20039;-76
2021/05/06 06:34:48;;;;;;;28.63;13.65;;;;;;;;;;5054625;28;20066;-78
2021/05/06 06:37:15;;;;;;;22.77;13.13;;;;;;;;;;5063756;28;20111;-78
2021/05/06 06:39:43;;;;;;;26.48;13.13;;;;;;;;;;5057855;28;20056;-78
2021/05/06 06:42:09;;;;;;;25.38;12.60;;;;;;;;;;5053476;28;20033;-78
2021/05/06 06:44:36;;;;;;;24.23;13.43;;;;;;;;;;5053034;28;20025;-79
2021/05/06 06:47:04;;;;;;;25.23;12.57;;;;;;;;;;5051768;28;20016;-78
2021/05/06 06:49:31;;;;;;;31.27;13.25;;;;;;;;;;5059886;28;20025;-80
2021/05/06 06:51:58;;;;;;;19.60;11.43;;;;;;;;;;5053291;28;20024;-75
2021/05/06 06:54:25;;;;;;;21.77;13.20;;;;;;;;;;5056585;28;20494;-79
2021/05/06 06:56:51;;;;;;;30.73;13.30;;;;;;;;;;5059819;28;20110;-78
2021/05/06 06:59:18;;;;;;;25.67;12.07;;;;;;;;;;5046505;28;20029;-74
2021/05/06 07:01:44;;;;;;;24.42;12.27;;;;;;;;;;5057545;28;20048;-76
2021/05/06 07:04:10;;;;;;;19.05;11.77;;;;;;;;;;5061957;28;20033;-79
2021/05/06 07:06:37;;;;;;;21.98;11.45;;;;;;;;;;5067391;28;20017;-77
2021/05/06 07:09:04;;;;;;;20.33;11.98;;;;;;;;;;5062065;28;20067;-77
2021/05/06 07:11:30;;;;;;;22.85;11.40;;;;;;;;;;5080345;28;20123;-77
2021/05/06 07:13:56;;;;;;;22.90;12.05;;;;;;;;;;5063936;28;20056;-78
2021/05/06 07:16:22;;;;;;;23.73;10.68;;;;;;;;;;5067338;28;20029;-77
2021/05/06 07:18:49;;;;;;;21.30;10.70;;;;;;;;;;5057845;28;20028;-76
2021/05/06 07:21:15;;;;;;;23.35;12.32;;;;;;;;;;5066718;28;20025;-76
2021/05/06 07:23:41;;;;;;;17.73;9.82;;;;;;;;;;5067652;28;20078;-76
2021/05/06 07:26:07;;;;;;;19.38;11.65;;;;;;;;;;5062573;28;20069;-78
2021/05/06 07:28:38;;;;;;;18.55;10.38;;;;;;;;;;5064233;28;20104;-74
2021/05/06 07:31:05;;;;;;;22.80;11.00;;;;;;;;;;5063158;28;20036;-77
2021/05/06 07:33:31;;;;;;;20.65;11.05;;;;;;;;;;5056475;28;20155;-77
2021/05/06 07:35:58;;;;;;;20.42;11.55;;;;;;;;;;5064088;28;20597;-76
2021/05/06 07:38:24;;;;;;;18.23;10.13;;;;;;;;;;5061300;28;20029;-77
2021/05/06 07:40:51;;;;;;;19.83;11.35;;;;;;;;;;5064899;28;20047;-76
2021/05/06 07:43:17;;;;;;;18.85;10.65;;;;;;;;;;5057900;28;20029;-78
2021/05/06 07:45:43;;;;;;;21.67;10.52;;;;;;;;;;5054851;28;20028;-78
2021/05/06 07:48:09;;;;;;;20.27;11.70;;;;;;;;;;5062176;28;20070;-78
2021/05/06 07:50:36;;;;;;;19.95;10.80;;;;;;;;;;5053181;28;20051;-76
2021/05/06 07:53:04;;;;;;;18.65;10.85;;;;;;;;;;5065977;28;20024;-77
2021/05/06 07:55:33;;;;;;;17.13;10.35;;;;;;;;;;5059088;28;20028;-75
2021/05/06 07:58:00;;;;;;;17.33;9.18;;;;;;;;;;5064117;28;20044;-76
2021/05/06 08:00:26;;;;;;;16.40;10.60;;;;;;;;;;5063285;28;20039;-78
2021/05/06 08:02:53;;;;;;;14.50;9.35;;;;;;;;;;5058141;28;20534;-77
2021/05/06 08:05:19;;;;;;;17.10;9.82;;;;;;;;;;5062231;28;20507;-77
2021/05/06 08:07:45;;;;;;;24.30;9.82;;;;;;;;;;5059556;28;20051;-78
2021/05/06 08:10:12;;;;;;;24.38;10.50;;;;;;;;;;5062968;28;20052;-78
2021/05/06 08:12:38;;;;;;;18.90;10.43;;;;;;;;;;5060298;28;20032;-77
2021/05/06 08:15:07;;;;;;;17.48;9.35;;;;;;;;;;5062191;28;20047;-77
2021/05/06 08:17:34;;;;;;;20.25;9.30;;;;;;;;;;5061068;28;20537;-76
2021/05/06 08:20:03;;;;;;;17.90;8.55;;;;;;;;;;5057785;28;20059;-72
2021/05/06 08:22:29;;;;;;;17.48;9.00;;;;;;;;;;5063556;28;20031;-74
2021/05/06 08:24:55;;;;;;;14.90;9.30;;;;;;;;;;5065164;28;20025;-76
2021/05/06 08:27:22;;;;;;;22.80;9.15;;;;;;;;;;5066363;28;20064;-76
2021/05/06 08:29:48;;;;;;;18.83;9.35;;;;;;;;;;5060292;28;20532;-74
2021/05/06 08:32:14;;;;;;;18.10;9.52;;;;;;;;;;5064070;28;20071;-77
2021/05/06 08:34:40;;;;;;;12.10;7.13;;;;;;;;;;5062350;28;20167;-74
2021/05/06 08:37:06;;;;;;;16.52;7.93;;;;;;;;;;5059460;28;20027;-77
2021/05/06 08:39:32;;;;;;;15.63;8.02;;;;;;;;;;5059123;28;20502;-74
2021/05/06 08:41:59;;;;;;;16.88;7.75;;;;;;;;;;5059863;28;20123;-76
2021/05/06 08:44:30;;;;;;;13.90;7.38;;;;;;;;;;5064072;28;20032;-76
2021/05/06 08:47:04;;;;;;;14.98;7.93;;;;;;;;;;5063149;28;20108;-75
2021/05/06 08:49:35;;;;;;;16.00;8.32;;;;;;;;;;5064460;28;20561;-75
2021/05/06 08:52:01;;;;;;;13.38;7.47;;;;;;;;;;5063224;28;20029;-74
2021/05/06 08:54:28;;;;;;;14.50;7.03;;;;;;;;;;5065062;28;20078;-77
2021/05/06 08:56:54;;;;;;;12.30;6.53;;;;;;;;;;5062862;28;20037;-76
2021/05/06 08:59:20;;;;;;;11.80;6.55;;;;;;;;;;5060983;28;20029;-75
2021/05/06 09:01:47;;;;;;;11.50;6.82;;;;;;;;;;5060358;28;20390;-72
2021/05/06 09:04:14;;;;;;;11.45;6.80;;;;;;;;;;5061077;28;21336;-75
2021/05/06 09:06:58;;;;;;;10.60;6.15;;;;;;;;;;5061475;28;20024;-76
2021/05/06 09:09:25;;;;;;;13.90;6.82;;;;;;;;;;5055847;28;20045;-75
2021/05/06 09:11:55;;;;;;;10.45;5.53;;;;;;;;;;5062600;28;20100;-73
2021/05/06 09:14:36;;;;;;;14.13;6.57;;;;;;;;;;5061830;28;20028;-74
2021/05/06 09:17:03;;;;;;;9.77;5.63;;;;;;;;;;5066258;28;20073;-74
2021/05/06 09:19:29;;;;;;;11.27;5.30;;;;;;;;;;5063316;28;20053;-75
2021/05/06 09:21:56;;;;;;;11.43;5.20;;;;;;;;;;5064290;28;20028;-73
2021/05/06 09:24:24;;;;;;;10.90;6.65;;;;;;;;;;5063496;28;20033;-74
2021/05/06 09:26:55;;;;;;;14.00;6.07;;;;;;;;;;5062596;28;20111;-73
2021/05/06 09:29:30;;;;;;;14.50;6.18;;;;;;;;;;5061144;28;20098;-72
2021/05/06 09:32:08;;;;;;;10.05;4.82;;;;;;;;;;5058372;28;20028;-71
2021/05/06 09:34:38;;;;;;;9.75;5.15;;;;;;;;;;5058956;28;20017;-72
2021/05/06 09:37:07;;;;;;;11.73;5.68;;;;;;;;;;5059558;28;20029;-74
2021/05/06 09:39:33;;;;;;;12.27;6.10;;;;;;;;;;5058164;28;20115;-74
2021/05/06 09:42:09;;;;;;;10.10;4.97;;;;;;;;;;5059862;28;20047;-73
2021/05/06 09:44:54;;;;;;;10.35;5.82;;;;;;;;;;5058695;28;20028;-72
2021/05/06 09:47:20;;;;;;;11.18;5.47;;;;;;;;;;5064444;28;20024;-73
2021/05/06 09:49:47;;;;;;;7.50;4.30;;;;;;;;;;5060603;28;20036;-73
2021/05/06 09:52:13;;;;;;;8.82;4.80;;;;;;;;;;5060825;28;20032;-72
2021/05/06 09:54:47;;;;;;;10.35;4.53;;;;;;;;;;5053673;28;20035;-72
2021/05/06 09:57:13;;;;;;;10.55;4.05;;;;;;;;;;5061187;28;20032;-73
2021/05/06 09:59:40;;;;;;;8.40;3.67;;;;;;;;;;5053784;28;20025;-72
2021/05/06 10:02:17;;;;;;;8.45;4.05;;;;;;;;;;5058468;28;20029;-74
2021/05/06 10:04:44;;;;;;;11.65;4.80;;;;;;;;;;5058509;28;20763;-74
2021/05/06 10:07:13;;;;;;;10.10;4.45;;;;;;;;;;5058427;28;20024;-72
2021/05/06 10:09:56;;;;;;;11.18;3.88;;;;;;;;;;5058393;28;20028;-73
2021/05/06 10:12:26;;;;;;;7.53;3.13;;;;;;;;;;5057725;28;20178;-71
2021/05/06 10:14:53;;;;;;;7.47;3.15;;;;;;;;;;5053849;28;20029;-73
2021/05/06 10:17:20;;;;;;;9.93;3.33;;;;;;;;;;5057792;28;20383;-74
2021/05/06 10:19:46;;;;;;;5.43;2.30;;;;;;;;;;5054306;28;20020;-72
2021/05/06 10:22:15;;;;;;;7.53;4.28;;;;;;;;;;5057227;28;20063;-73
2021/05/06 10:24:44;;;;;;;10.57;4.45;;;;;;;;;;5059158;28;20115;-73
2021/05/06 10:27:15;;;;;;;12.13;5.88;;;;;;;;;;5057350;28;20021;-74
2021/05/06 10:29:41;;;;;;;11.90;6.22;;;;;;;;;;5048650;28;20055;-72
2021/05/06 10:32:11;;;;;;;13.75;6.13;;;;;;;;;;5056656;28;20028;-73
2021/05/06 10:34:38;;;;;;;12.38;5.32;;;;;;;;;;5059951;28;20082;-72
2021/05/06 10:37:04;;;;;;;12.80;6.68;;;;;;;;;;5062527;28;20063;-72
2021/05/06 10:39:44;;;;;;;10.15;5.30;;;;;;;;;;5059529;28;20032;-73
2021/05/06 10:42:25;;;;;;;8.68;5.30;;;;;;;;;;5059818;28;20037;-73
2021/05/06 10:44:55;;;;;;;7.68;4.13;;;;;;;;;;5057565;28;20024;-71
2021/05/06 10:47:40;;;;;;;11.43;4.30;;;;;;;;;;5064441;28;20043;-71
2021/05/06 10:50:12;;;;;;;12.70;4.78;;;;;;;;;;5055116;28;20023;-74
2021/05/06 10:52:42;;;;;;;10.27;4.28;;;;;;;;;;5058404;28;20032;-71
2021/05/06 10:55:10;;;;;;;10.80;5.68;;;;;;;;;;5055405;28;20033;-72
2021/05/06 10:57:36;;;;;;;11.07;5.45;;;;;;;;;;5054799;28;20457;-71
2021/05/06 11:00:24;;;;;;;12.88;5.53;;;;;;;;;;5058321;28;20043;-73
2021/05/06 11:02:53;;;;;;;11.13;4.70;;;;;;;;;;5053253;28;20013;-73
2021/05/06 11:05:20;;;;;;;14.90;6.57;;;;;;;;;;5061358;28;20029;-72
2021/05/06 11:08:09;;;;;;;9.80;4.70;;;;;;;;;;5059316;28;20037;-73
2021/05/06 11:10:45;;;;;;;12.05;4.45;;;;;;;;;;5052897;28;20089;-75
2021/05/06 11:13:11;;;;;;;8.75;4.25;;;;;;;;;;5055438;28;20079;-74
2021/05/06 11:15:39;;;;;;;11.32;4.82;;;;;;;;;;5064920;28;20028;-73
2021/05/06 11:18:06;;;;;;;6.45;2.60;;;;;;;;;;5059251;28;20029;-75
2021/05/06 11:20:32;;;;;;;10.77;3.30;;;;;;;;;;5057054;28;20468;-75
2021/05/06 11:23:00;;;;;;;11.57;3.22;;;;;;;;;;5055907;28;20482;-74
2021/05/06 11:25:26;;;;;;;13.50;4.05;;;;;;;;;;5061779;28;20021;-73
2021/05/06 11:27:53;;;;;;;7.72;2.92;;;;;;;;;;5050914;28;20017;-74
2021/05/06 11:30:38;;;;;;;9.63;4.15;;;;;;;;;;5054097;28;20032;-75
2021/05/06 11:33:19;;;;;;;9.23;3.50;;;;;;;;;;5063384;28;20054;-73
2021/05/06 11:35:57;;;;;;;7.60;3.17;;;;;;;;;;5060468;28;20052;-76
2021/05/06 11:38:44;;;;;;;8.32;2.97;;;;;;;;;;5065117;28;20039;-75
2021/05/06 11:41:29;;;;;;;10.30;2.92;;;;;;;;;;5057812;28;20021;-75
2021/05/06 11:43:59;;;;;;;15.13;5.55;;;;;;;;;;5061629;28;20402;-73
2021/05/06 11:46:46;;;;;;;11.43;3.65;;;;;;;;;;5052848;28;20037;-75
2021/05/06 11:49:14;;;;;;;6.47;3.05;;;;;;;;;;5059763;28;20035;-76
2021/05/06 11:51:44;;;;;;;5.22;2.20;;;;;;;;;;5059577;28;20013;-73
2021/05/06 11:54:18;;;;;;;8.70;2.92;;;;;;;;;;5058085;28;20514;-73
2021/05/06 11:56:51;;;;;;;7.40;2.90;;;;;;;;;;5056874;28;20025;-77
2021/05/06 11:59:19;;;;;;;5.90;1.80;;;;;;;;;;5059607;28;20060;-72
2021/05/06 12:01:45;;;;;;;6.65;2.40;;;;;;;;;;5059683;28;20614;-75
2021/05/06 12:04:22;;;;;;;7.63;2.08;;;;;;;;;;5058533;28;20021;-74
2021/05/06 12:06:48;;;;;;;5.80;1.95;;;;;;;;;;5057193;28;20479;-77
2021/05/06 12:09:21;;;;;;;7.40;1.95;;;;;;;;;;5059072;28;20554;-75
2021/05/06 12:11:47;;;;;;;7.32;2.38;;;;;;;;;;5057086;28;20033;-78
2021/05/06 12:14:14;;;;;;;9.07;2.03;;;;;;;;;;5055429;28;20044;-77
2021/05/06 12:16:40;;;;;;;5.53;2.78;;;;;;;;;;5065342;28;20089;-74
2021/05/06 12:19:10;;;;;;;8.77;2.35;;;;;;;;;;5066917;28;20511;-80
2021/05/06 12:21:36;;;;;;;6.80;3.03;;;;;;;;;;5057634;28;20060;-76
2021/05/06 12:24:04;;;;;;;8.55;2.78;;;;;;;;;;5067703;28;20512;-75
2021/05/06 12:26:30;;;;;;;10.02;2.75;;;;;;;;;;5063614;28;20028;-75
2021/05/06 12:28:57;;;;;;;6.60;2.20;;;;;;;;;;5056676;28;20309;-74
2021/05/06 12:31:23;;;;;;;6.50;2.83;;;;;;;;;;5060448;28;20049;-74
2021/05/06 12:33:50;;;;;;;12.60;3.70;;;;;;;;;;5059423;28;20033;-73
2021/05/06 12:36:17;;;;;;;8.32;2.95;;;;;;;;;;5062737;28;20036;-74
2021/05/06 12:38:43;;;;;;;9.70;2.83;;;;;;;;;;5059166;28;20055;-76
2021/05/06 12:41:10;;;;;;;10.55;3.47;;;;;;;;;;5056756;28;20032;-76
2021/05/06 12:43:37;;;;;;;6.80;2.58;;;;;;;;;;5064003;28;20059;-78
2021/05/06 12:46:03;;;;;;;8.35;3.10;;;;;;;;;;5056911;28;20094;-78
2021/05/06 12:48:36;;;;;;;8.75;2.75;;;;;;;;;;5061525;28;20029;-75
2021/05/06 12:51:03;;;;;;;8.02;3.42;;;;;;;;;;5054612;28;20438;-76
2021/05/06 12:53:29;;;;;;;7.60;3.13;;;;;;;;;;5061081;28;20028;-75
2021/05/06 12:55:55;;;;;;;7.68;3.00;;;;;;;;;;5061169;28;20093;-75
2021/05/06 12:58:25;;;;;;;6.82;2.92;;;;;;;;;;5068540;28;20031;-75
2021/05/06 13:00:54;;;;;;;8.05;2.85;;;;;;;;;;5058870;28;20032;-76
2021/05/06 13:03:30;;;;;;;8.68;2.70;;;;;;;;;;5058555;28;20028;-74
2021/05/06 13:06:02;;;;;;;6.38;2.55;;;;;;;;;;5068036;28;20024;-74
2021/05/06 13:08:28;;;;;;;;;;;;;;;;;;5068842;28;20134;-75
2021/05/06 13:11:00;;;;;;;7.85;2.40;;;;;;;;;;5066590;28;20384;-75
2021/05/06 13:13:37;;;;;;;9.15;2.53;;;;;;;;;;5070458;28;20027;-74
2021/05/06 13:16:04;;;;;;;8.55;3.50;;;;;;;;;;5062444;28;20111;-73
2021/05/06 13:18:30;;;;;;;8.52;2.92;;;;;;;;;;5052648;28;20569;-72
2021/05/06 13:20:57;;;;;;;9.13;4.00;;;;;;;;;;5052805;28;20024;-74
2021/05/06 13:23:24;;;;;;;10.13;3.20;;;;;;;;;;5058495;28;20029;-77
2021/05/06 13:25:51;;;;;;;7.63;3.60;;;;;;;;;;5067214;28;20395;-72
2021/05/06 13:28:18;;;;;;;8.52;3.55;;;;;;;;;;5058116;28;20031;-74
2021/05/06 13:30:48;;;;;;;7.88;2.92;;;;;;;;;;5054241;28;20024;-74
2021/05/06 13:33:19;;;;;;;7.93;2.80;;;;;;;;;;5059580;28;20056;-75
2021/05/06 13:36:00;;;;;;;7.82;2.75;;;;;;;;;;5070541;28;20035;-76
2021/05/06 13:38:45;;;;;;;6.28;2.30;;;;;;;;;;5064605;28;20035;-75
2021/05/06 13:41:11;;;;;;;7.03;3.15;;;;;;;;;;5062773;28;20032;-74
2021/05/06 13:43:37;;;;;;;6.38;2.50;;;;;;;;;;5056419;28;20031;-76
2021/05/06 13:46:03;;;;;;;5.93;2.42;;;;;;;;;;5058552;28;20017;-74
2021/05/06 13:48:29;;;;;;;7.72;3.10;;;;;;;;;;5057882;28;20020;-75
2021/05/06 13:50:55;;;;;;;6.85;2.67;;;;;;;;;;5057139;28;20028;-74
2021/05/06 13:53:21;;;;;;;8.27;3.08;;;;;;;;;;5062284;28;20398;-74
2021/05/06 13:55:47;;;;;;;8.77;2.72;;;;;;;;;;5060914;28;20047;-75
2021/05/06 13:58:13;;;;;;;8.18;2.78;;;;;;;;;;5058999;28;20033;-76
2021/05/06 14:00:39;;;;;;;10.15;2.65;;;;;;;;;;5056585;28;20024;-75
2021/05/06 14:03:06;;;;;;;8.00;2.65;;;;;;;;;;5055575;28;20033;-74
2021/05/06 14:05:32;;;;;;;13.43;3.33;;;;;;;;;;5062174;28;20024;-75
2021/05/06 14:07:58;;;;;;;9.60;2.83;;;;;;;;;;5058720;28;20040;-74
2021/05/06 14:10:24;;;;;;;6.85;3.20;;;;;;;;;;5057405;28;20048;-75
2021/05/06 14:12:50;;;;;;;8.70;2.88;;;;;;;;;;5059222;28;20025;-73
2021/05/06 14:15:17;;;;;;;7.97;3.03;;;;;;;;;;5058342;28;20048;-75
2021/05/06 14:17:43;;;;;;;8.10;3.15;;;;;;;;;;5062021;28;20159;-75
2021/05/06 14:20:10;;;;;;;8.10;3.20;;;;;;;;;;5061775;28;20491;-74
2021/05/06 14:22:36;;;;;;;10.75;3.28;;;;;;;;;;5061723;28;20081;-74
2021/05/06 14:25:02;;;;;;;10.60;4.25;;;;;;;;;;5065106;28;20056;-74
2021/05/06 14:27:28;;;;;;;8.95;4.00;;;;;;;;;;5058554;28;20491;-76
2021/05/06 14:29:54;;;;;;;8.57;3.60;;;;;;;;;;5058444;28;20517;-75
2021/05/06 14:32:20;;;;;;;13.05;2.75;;;;;;;;;;5054826;28;20041;-73
2021/05/06 14:34:46;;;;;;;7.90;3.28;;;;;;;;;;5051237;28;21636;-72
2021/05/06 14:37:12;;;;;;;10.50;3.67;;;;;;;;;;5062218;28;20033;-75
2021/05/06 14:39:38;;;;;;;10.15;3.38;;;;;;;;;;5056946;28;20033;-75
2021/05/06 14:42:04;;;;;;;9.55;3.30;;;;;;;;;;5060920;28;20056;-75
2021/05/06 14:44:30;;;;;;;9.38;3.60;;;;;;;;;;5051750;28;20077;-73
2021/05/06 14:46:57;;;;;;;6.65;3.00;;;;;;;;;;5068070;28;20025;-74
2021/05/06 14:49:23;;;;;;;10.32;3.72;;;;;;;;;;5052892;28;20044;-76
2021/05/06 14:51:49;;;;;;;11.18;3.42;;;;;;;;;;5058673;28;20040;-74
2021/05/06 14:54:15;;;;;;;7.18;3.58;;;;;;;;;;5064085;28;20028;-76
2021/05/06 14:56:41;;;;;;;7.78;2.72;;;;;;;;;;5057762;28;20028;-75
2021/05/06 14:59:07;;;;;;;9.52;3.55;;;;;;;;;;5058272;28;20017;-73
2021/05/06 15:01:34;;;;;;;7.03;3.13;;;;;;;;;;5052014;28;20037;-73
2021/05/06 15:04:00;;;;;;;8.10;3.88;;;;;;;;;;5062560;28;20067;-73
2021/05/06 15:06:26;;;;;;;8.55;3.75;;;;;;;;;;5063859;28;20044;-76
2021/05/06 15:08:52;;;;;;;9.45;3.70;;;;;;;;;;5059532;28;20514;-72
2021/05/06 15:11:18;;;;;;;10.85;3.53;;;;;;;;;;5068811;28;20024;-72
2021/05/06 15:13:44;;;;;;;8.30;3.63;;;;;;;;;;5055215;28;20037;-73
2021/05/06 15:16:10;;;;;;;8.10;3.28;;;;;;;;;;5065877;28;20028;-72
2021/05/06 15:18:37;;;;;;;13.02;4.07;;;;;;;;;;5053906;28;20426;-72
2021/05/06 15:21:03;;;;;;;10.15;3.50;;;;;;;;;;5059191;28;20047;-75
2021/05/06 15:23:29;;;;;;;7.63;3.65;;;;;;;;;;5054841;28;20027;-74
2021/05/06 15:25:55;;;;;;;14.98;4.47;;;;;;;;;;5063124;28;20021;-74
2021/05/06 15:28:21;;;;;;;8.00;4.03;;;;;;;;;;5059814;28;20028;-72
2021/05/06 15:30:51;;;;;;;9.90;4.22;;;;;;;;;;5054099;28;20016;-72
2021/05/06 15:33:17;;;;;;;8.48;3.60;;;;;;;;;;5063720;28;20164;-75
2021/05/06 15:35:43;;;;;;;10.27;3.85;;;;;;;;;;5071793;28;20033;-73
2021/05/06 15:38:09;;;;;;;11.75;4.25;;;;;;;;;;5067878;28;20055;-75
2021/05/06 15:40:38;;;;;;;12.20;4.32;;;;;;;;;;5061943;28;20051;-74
2021/05/06 15:43:05;;;;;;;11.32;4.03;;;;;;;;;;5062479;28;20032;-73
2021/05/06 15:45:31;;;;;;;12.32;3.70;;;;;;;;;;5056889;28;20575;-73
2021/05/06 15:47:57;;;;;;;12.50;3.97;;;;;;;;;;5062754;28;20046;-75
2021/05/06 15:50:23;;;;;;;11.30;4.22;;;;;;;;;;5069613;28;20028;-72
2021/05/06 15:52:50;;;;;;;13.65;4.20;;;;;;;;;;5063093;28;20051;-73
2021/05/06 15:55:16;;;;;;;11.05;4.20;;;;;;;;;;5062250;28;20033;-76
2021/05/06 15:57:43;;;;;;;9.05;4.80;;;;;;;;;;5067677;28;20040;-74
2021/05/06 16:00:11;;;;;;;12.98;4.90;;;;;;;;;;5060325;28;20050;-76
2021/05/06 16:02:38;;;;;;;10.80;4.28;;;;;;;;;;5056250;28;20588;-73
2021/05/06 16:05:06;;;;;;;8.70;3.70;;;;;;;;;;5068406;28;20403;-73
2021/05/06 16:07:32;;;;;;;8.48;3.53;;;;;;;;;;5067452;28;20064;-74
2021/05/06 16:09:58;;;;;;;11.00;4.05;;;;;;;;;;5057016;28;20047;-73
2021/05/06 16:12:24;;;;;;;12.25;4.47;;;;;;;;;;5065710;28;20033;-75
2021/05/06 16:14:50;;;;;;;12.68;4.40;;;;;;;;;;5063082;28;20035;-75
2021/05/06 16:17:16;;;;;;;9.63;4.18;;;;;;;;;;5060246;28;20029;-74
2021/05/06 16:19:43;;;;;;;14.38;3.90;;;;;;;;;;5059985;28;20240;-71
2021/05/06 16:22:09;;;;;;;9.43;3.03;;;;;;;;;;5060522;28;20041;-71
2021/05/06 16:24:36;;;;;;;8.25;2.47;;;;;;;;;;5059857;28;20047;-73
2021/05/06 16:27:04;;;;;;;6.18;2.72;;;;;;;;;;5067700;28;20025;-75
2021/05/06 16:29:31;;;;;;;8.90;2.30;;;;;;;;;;5054130;28;20029;-72
2021/05/06 16:31:57;;;;;;;6.18;2.53;;;;;;;;;;5070684;28;20025;-73
2021/05/06 16:34:25;;;;;;;8.77;2.50;;;;;;;;;;5053627;28;20047;-74
2021/05/06 16:37:03;;;;;;;7.25;3.10;;;;;;;;;;5062559;28;20305;-72
2021/05/06 16:39:43;;;;;;;6.72;2.42;;;;;;;;;;5061029;28;20016;-73
2021/05/06 16:42:32;;;;;;;7.43;2.10;;;;;;;;;;5062741;28;20128;-74
2021/05/06 16:44:58;;;;;;;6.72;2.28;;;;;;;;;;5064080;28;20490;-73
2021/05/06 16:47:24;;;;;;;7.57;2.10;;;;;;;;;;5064714;28;20465;-75
2021/05/06 16:49:50;;;;;;;8.88;2.03;;;;;;;;;;5049236;28;20025;-74
2021/05/06 16:52:17;;;;;;;6.13;2.15;;;;;;;;;;5055575;28;20070;-73
2021/05/06 16:54:43;;;;;;;6.57;2.05;;;;;;;;;;5063504;28;20025;-75
2021/05/06 16:57:09;;;;;;;6.15;2.03;;;;;;;;;;5052583;28;20036;-73
2021/05/06 16:59:35;;;;;;;6.93;1.95;;;;;;;;;;5054899;28;20067;-73
2021/05/06 17:02:01;;;;;;;7.18;2.00;;;;;;;;;;5071596;28;20029;-73
2021/05/06 17:04:27;;;;;;;7.32;2.20;;;;;;;;;;5056842;28;20036;-74
2021/05/06 17:06:55;;;;;;;7.68;1.55;;;;;;;;;;5057835;28;20021;-73
2021/05/06 17:09:22;;;;;;;9.30;1.95;;;;;;;;;;5056178;28;20048;-74
2021/05/06 17:11:48;;;;;;;5.57;1.55;;;;;;;;;;5055645;28;20379;-72
2021/05/06 17:14:14;;;;;;;6.63;2.15;;;;;;;;;;5053011;28;20039;-74
2021/05/06 17:16:40;;;;;;;4.68;1.45;;;;;;;;;;5056043;28;20027;-73
2021/05/06 17:19:06;;;;;;;11.40;2.40;;;;;;;;;;5060842;28;20016;-76
2021/05/06 17:21:32;;;;;;;6.03;1.70;;;;;;;;;;5068723;28;20070;-72
2021/05/06 17:24:00;;;;;;;8.70;3.08;;;;;;;;;;5061720;28;20059;-76
2021/05/06 17:26:26;;;;;;;6.50;2.28;;;;;;;;;;5064488;28;20486;-73
2021/05/06 17:28:52;;;;;;;8.60;2.92;;;;;;;;;;5059233;28;20324;-74
2021/05/06 17:31:18;;;;;;;11.15;3.17;;;;;;;;;;5055161;28;20037;-72
2021/05/06 17:33:44;;;;;;;8.27;2.63;;;;;;;;;;5060007;28;20030;-73
2021/05/06 17:36:10;;;;;;;9.90;3.55;;;;;;;;;;5060897;28;20522;-72
2021/05/06 17:38:37;;;;;;;13.02;2.97;;;;;;;;;;5060111;28;20552;-73
2021/05/06 17:41:03;;;;;;;9.20;3.10;;;;;;;;;;5057912;28;20037;-76
2021/05/06 17:43:30;;;;;;;10.77;3.45;;;;;;;;;;5064299;28;20037;-73
2021/05/06 17:45:57;;;;;;;12.23;3.08;;;;;;;;;;5059751;28;20387;-76